Estación Meteorológica Peña el Pijo (Robertgarden) [ 11/17/17 23:54:05 CET ]

Fecha Hora Presion(HPa) Temp (°C) Humedad % Rocio (°C) Viento ( m/s) Direccion Lluvia 1Hora(mm) Lluvia 24H(mm) LLuvia Total(mm)
2017-Sep-10 01:01:46 1003.100 16.4 43 3.7         1457.65
2017-Sep-10 02:01:52 1003.600 14.2 43 1.7         1457.65
2017-Sep-10 03:02:11 1003.900 14.4 42 1.6         1457.65
2017-Sep-10 04:02:18 1003.900 13.3 43 0.9         1457.65
2017-Sep-10 05:02:19 1004.000 10.0 51 0.4         1457.65
2017-Sep-10 06:02:26 1004.600 8.8 55 0.2         1457.65
2017-Sep-10 07:01:51 1004.900 7.2 60 -0.0         1457.65
2017-Sep-10 08:01:34 1005.500 8.9 61 1.8         1457.65
2017-Sep-10 09:01:50 1006.400 11.1 59 3.3         1457.65
2017-Sep-10 10:01:37 1006.600 16.8 44 4.4         1457.65
2017-Sep-10 11:01:35 1007.000 18.3 36 2.9 1.9 S     1457.65
2017-Sep-10 12:01:40 1007.000 20.9 32 3.5         1457.65
2017-Sep-10 13:01:53 1007.200 23.1 28 3.5         1457.65
2017-Sep-10 14:01:54 1007.200 23.3 25 1.9         1457.65
2017-Sep-10 15:01:43 1007.200 23.8 23 1.2         1457.65
2017-Sep-10 16:01:57 1007.100 24.6 23 1.9 1.2 N     1457.65
2017-Sep-10 17:01:41 1006.700 24.7 24 2.6         1457.65
2017-Sep-10 18:01:42 1006.900 24.6 23 1.9         1457.65
2017-Sep-10 19:01:59 1007.500 23.3 23 0.8         1457.65
2017-Sep-10 20:01:48 1007.900 18.9 27 -0.7         1457.65
2017-Sep-10 21:01:52 1008.500 15.4 35 -0.1         1457.65
2017-Sep-10 22:01:35 1009.000 12.8 44 0.8         1457.65
2017-Sep-10 23:02:00 1009.700 11.4 49 1.1         1457.65

Temperatura Máxima:24°    Temperatura Mínima:
Presión Máxima:1009.700 Hpa    Presión Mínima:1003.100 Hpa


Volver